createdAt,value
2022-08-14T00:00:11.000Z,1012.06
2022-08-14T00:01:04.000Z,1012.06
2022-08-14T00:02:04.000Z,1012.03
2022-08-14T00:03:03.000Z,1011.98
2022-08-14T00:04:03.000Z,1011.95
2022-08-14T00:05:06.000Z,1011.91
2022-08-14T00:06:04.000Z,1011.89
2022-08-14T00:07:04.000Z,1011.89
2022-08-14T00:08:03.000Z,1011.84
2022-08-14T00:09:03.000Z,1011.79
2022-08-14T00:10:06.000Z,1011.79
2022-08-14T00:10:06.000Z,1011.79
2022-08-14T00:11:03.000Z,1011.77
2022-08-14T00:12:04.000Z,1011.76
2022-08-14T00:13:04.000Z,1011.73
2022-08-14T00:14:03.000Z,1011.73
2022-08-14T00:15:12.000Z,1011.73
2022-08-14T00:16:03.000Z,1011.74
2022-08-14T00:17:03.000Z,1011.70
2022-08-14T00:18:05.000Z,1011.73
2022-08-14T00:19:03.000Z,1011.73
2022-08-14T00:20:06.000Z,1011.73
2022-08-14T00:21:04.000Z,1011.73
2022-08-14T00:22:03.000Z,1011.72
2022-08-14T00:23:05.000Z,1011.75
2022-08-14T00:24:03.000Z,1011.73
2022-08-14T00:25:05.000Z,1011.66
2022-08-14T00:26:03.000Z,1011.63
2022-08-14T00:27:03.000Z,1011.61
2022-08-14T00:28:07.000Z,1011.62
2022-08-14T00:29:03.000Z,1011.59
2022-08-14T00:30:06.000Z,1011.56
2022-08-14T00:31:04.000Z,1011.60
2022-08-14T00:32:04.000Z,1011.62
2022-08-14T00:32:04.000Z,1011.62
2022-08-14T00:33:03.000Z,1011.58
2022-08-14T00:34:03.000Z,1011.61
2022-08-14T00:35:06.000Z,1011.62
2022-08-14T00:36:04.000Z,1011.60
2022-08-14T00:37:03.000Z,1011.58
2022-08-14T00:38:03.000Z,1011.57
2022-08-14T00:39:04.000Z,1011.63
2022-08-14T00:40:07.000Z,1011.54
2022-08-14T00:41:06.000Z,1011.55
2022-08-14T00:42:04.000Z,1011.56
2022-08-14T00:43:04.000Z,1011.63
2022-08-14T00:44:03.000Z,1011.59
2022-08-14T00:45:05.000Z,1011.63
2022-08-14T00:46:05.000Z,1011.63
2022-08-14T00:47:06.000Z,1011.66
2022-08-14T00:48:03.000Z,1011.61
2022-08-14T00:49:04.000Z,1011.63
2022-08-14T00:50:06.000Z,1011.59
2022-08-14T00:51:06.000Z,1011.56
2022-08-14T00:52:04.000Z,1011.54
2022-08-14T00:53:04.000Z,1011.56
2022-08-14T00:54:04.000Z,1011.57
2022-08-14T00:55:06.000Z,1011.56
2022-08-14T00:56:05.000Z,1011.55
2022-08-14T00:57:04.000Z,1011.58
2022-08-14T00:58:08.000Z,1011.55
2022-08-14T00:59:03.000Z,1011.56
2022-08-14T01:00:08.000Z,1011.56
2022-08-14T01:01:08.000Z,1011.58
2022-08-14T01:02:04.000Z,1011.57
2022-08-14T01:03:05.000Z,1011.60
2022-08-14T01:04:03.000Z,1011.57
2022-08-14T01:05:06.000Z,1011.59
2022-08-14T01:06:05.000Z,1011.60
2022-08-14T01:07:05.000Z,1011.59
2022-08-14T01:08:04.000Z,1011.59
2022-08-14T01:09:03.000Z,1011.57
2022-08-14T01:10:04.000Z,1011.53
2022-08-14T01:11:04.000Z,1011.51
2022-08-14T01:12:04.000Z,1011.48
2022-08-14T01:13:04.000Z,1011.43
2022-08-14T01:14:03.000Z,1011.43
2022-08-14T01:15:04.000Z,1011.46
2022-08-14T01:16:06.000Z,1011.47
2022-08-14T01:17:03.000Z,1011.46
2022-08-14T01:18:10.000Z,1011.45
2022-08-14T01:19:09.000Z,1011.46
2022-08-14T01:20:10.000Z,1011.45
2022-08-14T01:21:06.000Z,1011.43
2022-08-14T01:22:06.000Z,1011.43
2022-08-14T01:23:05.000Z,1011.40
2022-08-14T01:24:07.000Z,1011.40
2022-08-14T01:25:05.000Z,1011.42
2022-08-14T01:26:04.000Z,1011.40
2022-08-14T01:27:04.000Z,1011.35
2022-08-14T01:28:04.000Z,1011.38
2022-08-14T01:29:04.000Z,1011.30
2022-08-14T01:30:05.000Z,1011.29
2022-08-14T01:31:13.000Z,1011.26
2022-08-14T01:32:04.000Z,1011.21
2022-08-14T01:33:03.000Z,1011.17
2022-08-14T01:34:05.000Z,1011.16
2022-08-14T01:34:05.000Z,1011.16
2022-08-14T01:34:05.000Z,1011.16
2022-08-14T01:35:33.000Z,1011.13
2022-08-14T01:36:07.000Z,1011.08
2022-08-14T01:37:04.000Z,1011.08
2022-08-14T01:38:04.000Z,1011.05
2022-08-14T01:39:13.000Z,1011.04
2022-08-14T01:40:04.000Z,1011.01
2022-08-14T01:41:08.000Z,1010.95
2022-08-14T01:42:04.000Z,1010.94
2022-08-14T01:43:10.000Z,1010.92
2022-08-14T01:44:08.000Z,1010.90
2022-08-14T01:45:11.000Z,1010.90
2022-08-14T01:46:05.000Z,1010.87
2022-08-14T01:47:09.000Z,1010.94
2022-08-14T01:48:03.000Z,1010.90
2022-08-14T01:49:07.000Z,1010.91
2022-08-14T01:50:07.000Z,1010.92
2022-08-14T01:51:05.000Z,1010.96
2022-08-14T01:52:03.000Z,1010.96
2022-08-14T01:53:03.000Z,1010.93
2022-08-14T01:54:16.000Z,1010.95
2022-08-14T01:55:06.000Z,1010.95
2022-08-14T01:56:03.000Z,1010.97
2022-08-14T01:57:09.000Z,1010.96
2022-08-14T01:58:03.000Z,1010.99
2022-08-14T01:59:12.000Z,1010.98
2022-08-14T02:00:04.000Z,1011.00
2022-08-14T02:01:04.000Z,1011.00
2022-08-14T02:02:07.000Z,1011.00
2022-08-14T02:03:04.000Z,1011.00
2022-08-14T02:04:03.000Z,1011.03
2022-08-14T02:05:03.000Z,1011.04
2022-08-14T02:06:03.000Z,1010.99
2022-08-14T02:07:05.000Z,1010.98
2022-08-14T02:08:05.000Z,1010.98
2022-08-14T02:09:04.000Z,1010.98
2022-08-14T02:10:06.000Z,1010.96
2022-08-14T02:11:09.000Z,1010.92
2022-08-14T02:12:04.000Z,1010.90
2022-08-14T02:13:08.000Z,1010.88
2022-08-14T02:14:06.000Z,1010.88
2022-08-14T02:15:04.000Z,1010.88
2022-08-14T02:16:04.000Z,1010.87
2022-08-14T02:17:07.000Z,1010.87
2022-08-14T02:18:03.000Z,1010.89
2022-08-14T02:19:07.000Z,1010.86
2022-08-14T02:20:05.000Z,1010.90
2022-08-14T02:21:04.000Z,1010.90
2022-08-14T02:22:05.000Z,1010.90
2022-08-14T02:23:04.000Z,1010.88
2022-08-14T02:24:05.000Z,1010.84
2022-08-14T02:25:04.000Z,1010.80
2022-08-14T02:26:14.000Z,1010.83
2022-08-14T02:27:04.000Z,1010.82
2022-08-14T02:27:04.000Z,1010.82
2022-08-14T02:27:04.000Z,1010.82
2022-08-14T02:28:33.000Z,1010.81
2022-08-14T02:29:11.000Z,1010.78
2022-08-14T02:30:04.000Z,1010.77
2022-08-14T02:31:07.000Z,1010.80
2022-08-14T02:32:04.000Z,1010.77
2022-08-14T02:33:05.000Z,1010.75
2022-08-14T02:34:13.000Z,1010.71
2022-08-14T02:35:09.000Z,1010.72
2022-08-14T02:36:04.000Z,1010.66
2022-08-14T02:36:04.000Z,1010.66
2022-08-14T02:37:10.000Z,1010.69
2022-08-14T02:38:03.000Z,1010.66
2022-08-14T02:39:05.000Z,1010.67
2022-08-14T02:40:04.000Z,1010.65
2022-08-14T02:41:07.000Z,1010.65
2022-08-14T02:42:07.000Z,1010.67
2022-08-14T02:43:05.000Z,1010.63
2022-08-14T02:44:06.000Z,1010.68
2022-08-14T02:45:04.000Z,1010.61
2022-08-14T02:46:08.000Z,1010.64
2022-08-14T02:47:04.000Z,1010.62
2022-08-14T02:48:05.000Z,1010.58
2022-08-14T02:49:05.000Z,1010.58
2022-08-14T02:50:04.000Z,1010.59
2022-08-14T02:51:07.000Z,1010.56
2022-08-14T02:52:05.000Z,1010.52
2022-08-14T02:52:05.000Z,1010.52
2022-08-14T02:53:04.000Z,1010.51
2022-08-14T02:54:06.000Z,1010.51
2022-08-14T02:55:05.000Z,1010.51
2022-08-14T02:56:05.000Z,1010.50
2022-08-14T02:57:05.000Z,1010.47
2022-08-14T02:58:05.000Z,1010.50
2022-08-14T02:59:06.000Z,1010.49
2022-08-14T03:00:04.000Z,1010.43
2022-08-14T03:01:06.000Z,1010.42
2022-08-14T03:02:04.000Z,1010.42
2022-08-14T03:03:04.000Z,1010.41
2022-08-14T03:04:05.000Z,1010.41
2022-08-14T03:05:04.000Z,1010.37
2022-08-14T03:06:06.000Z,1010.38
2022-08-14T03:07:04.000Z,1010.43
2022-08-14T03:08:10.000Z,1010.41
2022-08-14T03:09:04.000Z,1010.43
2022-08-14T03:10:06.000Z,1010.42
2022-08-14T03:11:08.000Z,1010.42
2022-08-14T03:12:05.000Z,1010.46
2022-08-14T03:13:05.000Z,1010.44
2022-08-14T03:14:04.000Z,1010.45
2022-08-14T03:15:09.000Z,1010.48
2022-08-14T03:16:06.000Z,1010.45
2022-08-14T03:17:05.000Z,1010.48
2022-08-14T03:18:09.000Z,1010.45
2022-08-14T03:19:07.000Z,1010.45
2022-08-14T03:20:05.000Z,1010.44
2022-08-14T03:21:05.000Z,1010.44
2022-08-14T03:22:03.000Z,1010.41
2022-08-14T03:23:04.000Z,1010.45
2022-08-14T03:24:08.000Z,1010.48
2022-08-14T03:25:04.000Z,1010.48
2022-08-14T03:26:07.000Z,1010.50
2022-08-14T03:27:04.000Z,1010.50
2022-08-14T03:28:08.000Z,1010.48
2022-08-14T03:29:04.000Z,1010.52
2022-08-14T03:30:04.000Z,1010.50
2022-08-14T03:31:05.000Z,1010.49
2022-08-14T03:32:04.000Z,1010.50
2022-08-14T03:33:04.000Z,1010.51
2022-08-14T03:34:03.000Z,1010.52
2022-08-14T03:35:04.000Z,1010.53
2022-08-14T03:36:09.000Z,1010.51
2022-08-14T03:36:09.000Z,1010.51
2022-08-14T03:36:09.000Z,1010.51
2022-08-14T03:36:09.000Z,1010.51
2022-08-14T03:36:09.000Z,1010.51
2022-08-14T03:37:34.000Z,1010.57
2022-08-14T03:37:34.000Z,1010.57
2022-08-14T03:37:34.000Z,1010.57
2022-08-14T03:38:42.000Z,1010.59
2022-08-14T03:39:24.000Z,1010.64
2022-08-14T03:40:05.000Z,1010.60
2022-08-14T03:41:05.000Z,1010.61
2022-08-14T03:42:03.000Z,1010.59
2022-08-14T03:43:05.000Z,1010.58
2022-08-14T03:44:04.000Z,1010.62
2022-08-14T03:44:04.000Z,1010.62
2022-08-14T03:45:36.000Z,1010.58
2022-08-14T03:46:03.000Z,1010.57
2022-08-14T03:47:03.000Z,1010.57
2022-08-14T03:48:12.000Z,1010.60
2022-08-14T03:49:04.000Z,1010.55
2022-08-14T03:50:06.000Z,1010.55
2022-08-14T03:51:06.000Z,1010.55
2022-08-14T03:52:04.000Z,1010.56
2022-08-14T03:53:03.000Z,1010.53
2022-08-14T03:54:05.000Z,1010.54
2022-08-14T03:55:07.000Z,1010.50
2022-08-14T03:56:04.000Z,1010.45
2022-08-14T03:57:03.000Z,1010.48
2022-08-14T03:58:07.000Z,1010.44
2022-08-14T03:59:06.000Z,1010.44
2022-08-14T04:00:10.000Z,1010.44
2022-08-14T04:01:03.000Z,1010.48
2022-08-14T04:02:03.000Z,1010.49
2022-08-14T04:03:07.000Z,1010.52
2022-08-14T04:04:05.000Z,1010.54
2022-08-14T04:05:08.000Z,1010.52
2022-08-14T04:06:05.000Z,1010.55
2022-08-14T04:07:03.000Z,1010.58
2022-08-14T04:08:07.000Z,1010.53
2022-08-14T04:09:05.000Z,1010.54
2022-08-14T04:10:05.000Z,1010.50
2022-08-14T04:11:06.000Z,1010.50
2022-08-14T04:12:04.000Z,1010.54
2022-08-14T04:13:04.000Z,1010.57
2022-08-14T04:14:04.000Z,1010.55
2022-08-14T04:15:05.000Z,1010.56
2022-08-14T04:16:07.000Z,1010.56
2022-08-14T04:17:03.000Z,1010.54
2022-08-14T04:18:05.000Z,1010.53
2022-08-14T04:19:03.000Z,1010.53
2022-08-14T04:20:06.000Z,1010.55
2022-08-14T04:21:04.000Z,1010.49
2022-08-14T04:22:04.000Z,1010.54
2022-08-14T04:23:05.000Z,1010.50
2022-08-14T04:24:05.000Z,1010.49
2022-08-14T04:25:04.000Z,1010.49
2022-08-14T04:26:06.000Z,1010.49
2022-08-14T04:27:08.000Z,1010.52
2022-08-14T04:28:05.000Z,1010.50
2022-08-14T04:29:03.000Z,1010.48
2022-08-14T04:30:05.000Z,1010.48
2022-08-14T04:31:03.000Z,1010.48
2022-08-14T04:32:06.000Z,1010.51
2022-08-14T04:32:06.000Z,1010.51
2022-08-14T04:33:05.000Z,1010.51
2022-08-14T04:34:04.000Z,1010.52
2022-08-14T04:35:04.000Z,1010.53
2022-08-14T04:36:04.000Z,1010.52
2022-08-14T04:37:09.000Z,1010.51
2022-08-14T04:38:10.000Z,1010.53
2022-08-14T04:39:09.000Z,1010.49
2022-08-14T04:40:10.000Z,1010.49
2022-08-14T04:41:09.000Z,1010.50
2022-08-14T04:42:09.000Z,1010.54
2022-08-14T04:43:08.000Z,1010.56
2022-08-14T04:44:04.000Z,1010.58
2022-08-14T04:45:04.000Z,1010.58
2022-08-14T04:46:09.000Z,1010.55
2022-08-14T04:47:09.000Z,1010.60
2022-08-14T04:48:13.000Z,1010.56
2022-08-14T04:49:04.000Z,1010.55
2022-08-14T04:50:04.000Z,1010.55
2022-08-14T04:51:07.000Z,1010.54
2022-08-14T04:52:03.000Z,1010.54
2022-08-14T04:53:03.000Z,1010.55
2022-08-14T04:54:03.000Z,1010.50
2022-08-14T04:55:05.000Z,1010.52
2022-08-14T04:56:03.000Z,1010.50
2022-08-14T04:57:03.000Z,1010.55
2022-08-14T04:58:04.000Z,1010.56
2022-08-14T04:59:04.000Z,1010.53
2022-08-14T05:00:05.000Z,1010.57
2022-08-14T05:01:07.000Z,1010.54
2022-08-14T05:02:03.000Z,1010.53
2022-08-14T05:03:04.000Z,1010.58
2022-08-14T05:04:03.000Z,1010.56
2022-08-14T05:05:04.000Z,1010.55
2022-08-14T05:06:08.000Z,1010.55
2022-08-14T05:07:03.000Z,1010.57
2022-08-14T05:08:09.000Z,1010.57
2022-08-14T05:09:04.000Z,1010.57
2022-08-14T05:10:04.000Z,1010.58
2022-08-14T05:11:05.000Z,1010.57
2022-08-14T05:12:03.000Z,1010.57
2022-08-14T05:12:03.000Z,1010.57
2022-08-14T05:13:17.000Z,1010.57
2022-08-14T05:14:03.000Z,1010.62
2022-08-14T05:15:04.000Z,1010.59
2022-08-14T05:16:04.000Z,1010.58
2022-08-14T05:17:03.000Z,1010.55
2022-08-14T05:18:08.000Z,1010.57
2022-08-14T05:18:08.000Z,1010.57
2022-08-14T05:19:27.000Z,1010.56
2022-08-14T05:20:04.000Z,1010.54
2022-08-14T05:20:04.000Z,1010.54
2022-08-14T05:20:04.000Z,1010.54
2022-08-14T05:21:33.000Z,1010.51
2022-08-14T05:22:03.000Z,1010.52
2022-08-14T05:23:03.000Z,1010.53
2022-08-14T05:24:04.000Z,1010.50
2022-08-14T05:25:04.000Z,1010.53
2022-08-14T05:26:12.000Z,1010.52
2022-08-14T05:27:03.000Z,1010.49
2022-08-14T05:28:09.000Z,1010.47
2022-08-14T05:29:08.000Z,1010.45
2022-08-14T05:30:05.000Z,1010.44
2022-08-14T05:31:06.000Z,1010.46
2022-08-14T05:32:06.000Z,1010.47
2022-08-14T05:33:04.000Z,1010.47
2022-08-14T05:34:03.000Z,1010.46
2022-08-14T05:35:04.000Z,1010.49
2022-08-14T05:36:06.000Z,1010.48
2022-08-14T05:37:03.000Z,1010.50
2022-08-14T05:38:08.000Z,1010.51
2022-08-14T05:39:03.000Z,1010.55
2022-08-14T05:40:04.000Z,1010.56
2022-08-14T05:41:12.000Z,1010.58
2022-08-14T05:42:04.000Z,1010.58
2022-08-14T05:43:03.000Z,1010.59
2022-08-14T05:44:03.000Z,1010.61
2022-08-14T05:45:05.000Z,1010.57
2022-08-14T05:46:05.000Z,1010.58
2022-08-14T05:47:04.000Z,1010.53
2022-08-14T05:48:04.000Z,1010.52
2022-08-14T05:49:04.000Z,1010.50
2022-08-14T05:50:05.000Z,1010.50
2022-08-14T05:51:04.000Z,1010.51
2022-08-14T05:52:05.000Z,1010.48
2022-08-14T05:53:04.000Z,1010.50
2022-08-14T05:54:04.000Z,1010.50
2022-08-14T05:55:06.000Z,1010.49
2022-08-14T05:56:04.000Z,1010.48
2022-08-14T05:57:04.000Z,1010.45
2022-08-14T05:58:06.000Z,1010.42
2022-08-14T05:59:04.000Z,1010.42
2022-08-14T06:00:04.000Z,1010.41
2022-08-14T06:01:04.000Z,1010.39
2022-08-14T06:02:05.000Z,1010.36
2022-08-14T06:03:07.000Z,1010.39
2022-08-14T06:04:04.000Z,1010.37
2022-08-14T06:05:04.000Z,1010.36
2022-08-14T06:06:04.000Z,1010.37
2022-08-14T06:07:04.000Z,1010.33
2022-08-14T06:08:04.000Z,1010.33
2022-08-14T06:09:04.000Z,1010.30
2022-08-14T06:10:06.000Z,1010.30
2022-08-14T06:11:06.000Z,1010.33
2022-08-14T06:12:04.000Z,1010.33
2022-08-14T06:13:04.000Z,1010.31
2022-08-14T06:14:04.000Z,1010.34
2022-08-14T06:15:07.000Z,1010.37
2022-08-14T06:16:04.000Z,1010.37
2022-08-14T06:17:05.000Z,1010.41
2022-08-14T06:18:04.000Z,1010.39
2022-08-14T06:19:04.000Z,1010.39
2022-08-14T06:20:04.000Z,1010.38
2022-08-14T06:21:04.000Z,1010.40
2022-08-14T06:22:03.000Z,1010.37
2022-08-14T06:23:03.000Z,1010.38
2022-08-14T06:24:03.000Z,1010.35
2022-08-14T06:25:04.000Z,1010.35
2022-08-14T06:26:03.000Z,1010.33
2022-08-14T06:27:03.000Z,1010.30
2022-08-14T06:28:03.000Z,1010.29
2022-08-14T06:29:03.000Z,1010.28
2022-08-14T06:30:06.000Z,1010.23
2022-08-14T06:31:03.000Z,1010.23
2022-08-14T06:32:03.000Z,1010.21
2022-08-14T06:33:03.000Z,1010.13
2022-08-14T06:34:03.000Z,1010.11
2022-08-14T06:34:03.000Z,1010.11
2022-08-14T06:35:14.000Z,1010.09
2022-08-14T06:36:04.000Z,1010.07
2022-08-14T06:37:03.000Z,1010.02
2022-08-14T06:38:03.000Z,1009.99
2022-08-14T06:39:03.000Z,1009.98
2022-08-14T06:40:04.000Z,1009.92
2022-08-14T06:41:03.000Z,1009.92
2022-08-14T06:42:03.000Z,1009.86
2022-08-14T06:43:06.000Z,1009.86
2022-08-14T06:44:03.000Z,1009.83
2022-08-14T06:45:04.000Z,1009.79
2022-08-14T06:46:04.000Z,1009.78
2022-08-14T06:47:03.000Z,1009.79
2022-08-14T06:48:11.000Z,1009.75
2022-08-14T06:49:03.000Z,1009.69
2022-08-14T06:50:05.000Z,1009.70
2022-08-14T06:51:03.000Z,1009.69
2022-08-14T06:52:03.000Z,1009.69
2022-08-14T06:53:04.000Z,1009.69
2022-08-14T06:54:03.000Z,1009.71
2022-08-14T06:55:07.000Z,1009.70
2022-08-14T06:56:04.000Z,1009.71
2022-08-14T06:57:04.000Z,1009.70
2022-08-14T06:58:03.000Z,1009.66
2022-08-14T06:59:04.000Z,1009.67
2022-08-14T07:00:09.000Z,1009.65
2022-08-14T07:01:09.000Z,1009.63
2022-08-14T07:02:09.000Z,1009.64
2022-08-14T07:03:08.000Z,1009.61
2022-08-14T07:04:09.000Z,1009.58
2022-08-14T07:05:09.000Z,1009.56
2022-08-14T07:06:04.000Z,1009.55
2022-08-14T07:07:03.000Z,1009.55
2022-08-14T07:08:04.000Z,1009.52
2022-08-14T07:09:03.000Z,1009.54
2022-08-14T07:10:05.000Z,1009.54
2022-08-14T07:11:04.000Z,1009.56
2022-08-14T07:12:04.000Z,1009.56
2022-08-14T07:13:04.000Z,1009.57
2022-08-14T07:14:03.000Z,1009.59
2022-08-14T07:15:05.000Z,1009.58
2022-08-14T07:16:05.000Z,1009.59
2022-08-14T07:17:04.000Z,1009.61
2022-08-14T07:18:04.000Z,1009.57
2022-08-14T07:19:05.000Z,1009.58
2022-08-14T07:20:04.000Z,1009.57
2022-08-14T07:21:05.000Z,1009.57
2022-08-14T07:22:03.000Z,1009.61
2022-08-14T07:23:07.000Z,1009.58
2022-08-14T07:24:03.000Z,1009.61
2022-08-14T07:25:04.000Z,1009.59
2022-08-14T07:26:04.000Z,1009.57
2022-08-14T07:27:03.000Z,1009.60
2022-08-14T07:28:09.000Z,1009.56
2022-08-14T07:29:03.000Z,1009.56
2022-08-14T07:30:04.000Z,1009.55
2022-08-14T07:31:07.000Z,1009.55
2022-08-14T07:32:03.000Z,1009.56
2022-08-14T07:33:04.000Z,1009.59
2022-08-14T07:34:03.000Z,1009.58
2022-08-14T07:35:03.000Z,1009.58
2022-08-14T07:36:06.000Z,1009.59
2022-08-14T07:37:04.000Z,1009.53
2022-08-14T07:38:04.000Z,1009.51
2022-08-14T07:39:03.000Z,1009.56
2022-08-14T07:40:04.000Z,1009.57
2022-08-14T07:41:04.000Z,1009.59
2022-08-14T07:42:03.000Z,1009.59
2022-08-14T07:43:03.000Z,1009.57
2022-08-14T07:44:03.000Z,1009.61
2022-08-14T07:45:03.000Z,1009.59
2022-08-14T07:46:04.000Z,1009.62
2022-08-14T07:47:03.000Z,1009.63
2022-08-14T07:48:04.000Z,1009.64
2022-08-14T07:49:03.000Z,1009.64
2022-08-14T07:50:11.000Z,1009.70
2022-08-14T07:51:03.000Z,1009.71
2022-08-14T07:52:03.000Z,1009.70
2022-08-14T07:53:05.000Z,1009.76
2022-08-14T07:54:04.000Z,1009.73
2022-08-14T07:55:04.000Z,1009.74
2022-08-14T07:56:03.000Z,1009.74
2022-08-14T07:57:03.000Z,1009.71
2022-08-14T07:58:03.000Z,1009.69
2022-08-14T07:59:05.000Z,1009.68
2022-08-14T08:00:06.000Z,1009.67
2022-08-14T08:01:05.000Z,1009.67
2022-08-14T08:02:04.000Z,1009.66
2022-08-14T08:03:06.000Z,1009.65
2022-08-14T08:04:05.000Z,1009.68
2022-08-14T08:05:05.000Z,1009.67
2022-08-14T08:06:04.000Z,1009.63
2022-08-14T08:07:03.000Z,1009.60
2022-08-14T08:08:06.000Z,1009.65
2022-08-14T08:09:07.000Z,1009.64
2022-08-14T08:10:25.000Z,1009.66
2022-08-14T08:11:05.000Z,1009.68
2022-08-14T08:12:07.000Z,1009.69
2022-08-14T08:13:18.000Z,1009.69
2022-08-14T08:14:06.000Z,1009.69
2022-08-14T08:15:04.000Z,1009.67
2022-08-14T08:16:05.000Z,1009.70
2022-08-14T08:17:05.000Z,1009.67
2022-08-14T08:18:05.000Z,1009.63
2022-08-14T08:19:05.000Z,1009.59
2022-08-14T08:20:06.000Z,1009.59
2022-08-14T08:21:03.000Z,1009.57
2022-08-14T08:22:04.000Z,1009.63
2022-08-14T08:23:05.000Z,1009.63
2022-08-14T08:24:04.000Z,1009.60
2022-08-14T08:25:06.000Z,1009.62
2022-08-14T08:26:03.000Z,1009.61
2022-08-14T08:27:14.000Z,1009.59
2022-08-14T08:28:20.000Z,1009.60
2022-08-14T08:29:04.000Z,1009.60
2022-08-14T08:30:08.000Z,1009.59
2022-08-14T08:31:05.000Z,1009.59
2022-08-14T08:32:03.000Z,1009.57
2022-08-14T08:33:06.000Z,1009.53
2022-08-14T08:34:04.000Z,1009.52
2022-08-14T08:35:08.000Z,1009.48
2022-08-14T08:36:07.000Z,1009.47
2022-08-14T08:37:03.000Z,1009.46
2022-08-14T08:38:09.000Z,1009.42
2022-08-14T08:38:09.000Z,1009.42
2022-08-14T08:39:22.000Z,1009.37
2022-08-14T08:40:04.000Z,1009.38
2022-08-14T08:41:04.000Z,1009.36
2022-08-14T08:42:04.000Z,1009.38
2022-08-14T08:43:07.000Z,1009.39
2022-08-14T08:44:03.000Z,1009.39
2022-08-14T08:45:05.000Z,1009.38
2022-08-14T08:46:10.000Z,1009.38
2022-08-14T08:47:04.000Z,1009.36
2022-08-14T08:48:04.000Z,1009.35
2022-08-14T08:49:04.000Z,1009.39
2022-08-14T08:50:17.000Z,1009.36
2022-08-14T08:51:04.000Z,1009.31
2022-08-14T08:52:03.000Z,1009.29
2022-08-14T08:53:08.000Z,1009.27
2022-08-14T08:54:09.000Z,1009.25
2022-08-14T08:55:04.000Z,1009.23
2022-08-14T08:56:03.000Z,1009.21
2022-08-14T08:57:09.000Z,1009.18
2022-08-14T08:58:09.000Z,1009.20
2022-08-14T08:59:20.000Z,1009.18
2022-08-14T09:00:15.000Z,1009.22
2022-08-14T09:01:03.000Z,1009.20
2022-08-14T09:02:07.000Z,1009.18
2022-08-14T09:03:08.000Z,1009.17
2022-08-14T09:04:03.000Z,1009.14
2022-08-14T09:05:04.000Z,1009.12
2022-08-14T09:06:04.000Z,1009.14
2022-08-14T09:06:04.000Z,1009.14
2022-08-14T09:07:12.000Z,1009.08
2022-08-14T09:08:13.000Z,1009.10
2022-08-14T09:09:03.000Z,1009.10
2022-08-14T09:10:04.000Z,1009.09
2022-08-14T09:11:05.000Z,1009.03
2022-08-14T09:12:06.000Z,1009.02
2022-08-14T09:13:03.000Z,1009.02
2022-08-14T09:14:03.000Z,1008.99
2022-08-14T09:15:06.000Z,1008.97
2022-08-14T09:16:04.000Z,1009.02
2022-08-14T09:17:03.000Z,1009.02
2022-08-14T09:18:04.000Z,1008.93
2022-08-14T09:19:04.000Z,1008.93
2022-08-14T09:20:04.000Z,1008.94
2022-08-14T09:21:05.000Z,1008.93
2022-08-14T09:22:04.000Z,1008.92
2022-08-14T09:23:06.000Z,1008.84
2022-08-14T09:24:05.000Z,1008.85
2022-08-14T09:25:05.000Z,1008.82
2022-08-14T09:26:03.000Z,1008.79
2022-08-14T09:27:03.000Z,1008.82
2022-08-14T09:28:04.000Z,1008.80
2022-08-14T09:29:04.000Z,1008.77
2022-08-14T09:30:07.000Z,1008.75
2022-08-14T09:31:04.000Z,1008.75
2022-08-14T09:32:06.000Z,1008.74
2022-08-14T09:32:06.000Z,1008.74
2022-08-14T09:33:30.000Z,1008.76
2022-08-14T09:34:21.000Z,1008.74
2022-08-14T09:35:14.000Z,1008.73
2022-08-14T09:36:18.000Z,1008.71
2022-08-14T09:37:26.000Z,1008.68
2022-08-14T09:38:14.000Z,1008.65
2022-08-14T09:39:14.000Z,1008.67
2022-08-14T09:40:17.000Z,1008.63
2022-08-14T09:41:13.000Z,1008.61
2022-08-14T09:42:13.000Z,1008.62
2022-08-14T09:43:14.000Z,1008.60
2022-08-14T09:44:13.000Z,1008.62
2022-08-14T09:45:12.000Z,1008.64
2022-08-14T09:46:06.000Z,1008.68
2022-08-14T09:47:04.000Z,1008.73
2022-08-14T09:48:18.000Z,1008.76
2022-08-14T09:49:07.000Z,1008.79
2022-08-14T09:50:15.000Z,1008.78
2022-08-14T09:51:06.000Z,1008.78
2022-08-14T09:52:07.000Z,1008.83
2022-08-14T09:53:05.000Z,1008.79
2022-08-14T09:54:11.000Z,1008.78
2022-08-14T09:55:15.000Z,1008.77
2022-08-14T09:56:05.000Z,1008.79
2022-08-14T09:57:06.000Z,1008.78
2022-08-14T09:58:12.000Z,1008.74
2022-08-14T09:59:09.000Z,1008.76
2022-08-14T10:00:09.000Z,1008.72
2022-08-14T10:01:10.000Z,1008.74
2022-08-14T10:02:15.000Z,1008.77
2022-08-14T10:03:03.000Z,1008.73
2022-08-14T10:04:19.000Z,1008.74
2022-08-14T10:05:09.000Z,1008.69
2022-08-14T10:06:12.000Z,1008.71
2022-08-14T10:07:04.000Z,1008.68
2022-08-14T10:08:16.000Z,1008.66
2022-08-14T10:09:04.000Z,1008.63
2022-08-14T10:10:04.000Z,1008.56
2022-08-14T10:11:12.000Z,1008.50
2022-08-14T10:12:05.000Z,1008.47
2022-08-14T10:13:06.000Z,1008.47
2022-08-14T10:14:15.000Z,1008.44
2022-08-14T10:15:22.000Z,1008.39
2022-08-14T10:16:03.000Z,1008.39
2022-08-14T10:17:04.000Z,1008.38
2022-08-14T10:18:11.000Z,1008.32
2022-08-14T10:19:13.000Z,1008.24
2022-08-14T10:20:03.000Z,1008.21
2022-08-14T10:21:08.000Z,1008.21
2022-08-14T10:22:08.000Z,1008.20
2022-08-14T10:22:08.000Z,1008.20
2022-08-14T10:23:19.000Z,1008.18
2022-08-14T10:24:22.000Z,1008.20
2022-08-14T10:25:10.000Z,1008.13
2022-08-14T10:26:06.000Z,1008.14
2022-08-14T10:27:12.000Z,1008.12
2022-08-14T10:28:03.000Z,1008.12
2022-08-14T10:29:05.000Z,1008.13
2022-08-14T10:30:16.000Z,1008.08
2022-08-14T10:31:15.000Z,1008.04
2022-08-14T10:32:05.000Z,1008.02
2022-08-14T10:33:03.000Z,1008.00
2022-08-14T10:34:09.000Z,1008.02
2022-08-14T10:35:08.000Z,1007.93
2022-08-14T10:36:04.000Z,1008.03
2022-08-14T10:37:11.000Z,1008.04
2022-08-14T10:38:03.000Z,1007.98
2022-08-14T10:39:06.000Z,1007.95
2022-08-14T10:40:04.000Z,1007.93
2022-08-14T10:41:12.000Z,1007.92
2022-08-14T10:42:12.000Z,1007.87
2022-08-14T10:43:14.000Z,1007.82
2022-08-14T10:44:13.000Z,1007.78
2022-08-14T10:45:16.000Z,1007.67
2022-08-14T10:46:14.000Z,1007.71
2022-08-14T10:46:14.000Z,1007.71
2022-08-14T10:46:14.000Z,1007.71
2022-08-14T10:47:34.000Z,1007.65
2022-08-14T10:48:14.000Z,1007.63
2022-08-14T10:49:03.000Z,1007.63
2022-08-14T10:50:05.000Z,1007.61
2022-08-14T10:51:03.000Z,1007.60
2022-08-14T10:52:08.000Z,1007.63
2022-08-14T10:53:04.000Z,1007.60
2022-08-14T10:54:07.000Z,1007.58
2022-08-14T10:55:09.000Z,1007.58
2022-08-14T10:56:10.000Z,1007.59
2022-08-14T10:57:10.000Z,1007.54
2022-08-14T10:58:07.000Z,1007.58
2022-08-14T10:59:05.000Z,1007.51
2022-08-14T11:00:13.000Z,1007.48
2022-08-14T11:01:06.000Z,1007.47
2022-08-14T11:02:29.000Z,1007.47
2022-08-14T11:03:09.000Z,1007.40
2022-08-14T11:04:04.000Z,1007.34
2022-08-14T11:05:10.000Z,1007.30
2022-08-14T11:06:13.000Z,1007.21
2022-08-14T11:07:12.000Z,1007.16
2022-08-14T11:08:03.000Z,1007.19
2022-08-14T11:09:11.000Z,1007.22
2022-08-14T11:10:11.000Z,1007.24
2022-08-14T11:11:04.000Z,1007.21
2022-08-14T11:12:04.000Z,1007.27
2022-08-14T11:13:04.000Z,1007.24
2022-08-14T11:14:06.000Z,1007.27
2022-08-14T11:15:04.000Z,1007.25
2022-08-14T11:16:03.000Z,1007.24
2022-08-14T11:17:04.000Z,1007.26
2022-08-14T11:18:04.000Z,1007.29
2022-08-14T11:19:06.000Z,1007.27
2022-08-14T11:20:06.000Z,1007.25
2022-08-14T11:21:05.000Z,1007.29
2022-08-14T11:22:04.000Z,1007.28
2022-08-14T11:23:08.000Z,1007.20
2022-08-14T11:24:06.000Z,1007.22
2022-08-14T11:24:06.000Z,1007.22
2022-08-14T11:25:05.000Z,1007.19
2022-08-14T11:26:06.000Z,1007.16
2022-08-14T11:27:04.000Z,1007.23
2022-08-14T11:28:05.000Z,1007.20
2022-08-14T11:29:05.000Z,1007.22
2022-08-14T11:30:11.000Z,1007.20
2022-08-14T11:31:07.000Z,1007.16
2022-08-14T11:32:06.000Z,1007.19
2022-08-14T11:33:05.000Z,1007.21
2022-08-14T11:34:04.000Z,1007.22
2022-08-14T11:35:04.000Z,1007.23
2022-08-14T11:36:06.000Z,1007.24
2022-08-14T11:37:08.000Z,1007.28